createdAt,value
2018-07-09T00:00:13.984Z,4.47
2018-07-09T00:03:19.680Z,4.57
2018-07-09T00:06:24.429Z,4.40
2018-07-09T00:09:35.897Z,5.00
2018-07-09T00:12:41.328Z,4.97
2018-07-09T00:15:46.659Z,5.00
2018-07-09T00:18:51.375Z,5.27
2018-07-09T00:25:08.071Z,5.07
2018-07-09T00:28:14.214Z,5.37
2018-07-09T00:31:20.139Z,5.73
2018-07-09T00:34:28.333Z,5.53
2018-07-09T00:37:33.704Z,5.80
2018-07-09T00:40:48.921Z,6.03
2018-07-09T00:43:58.242Z,5.83
2018-07-09T00:47:07.476Z,5.60
2018-07-09T00:50:13.405Z,5.43
2018-07-09T00:53:20.672Z,6.40
2018-07-09T00:56:25.751Z,6.10
2018-07-09T00:59:30.343Z,6.37
2018-07-09T01:02:36.109Z,6.10
2018-07-09T01:05:46.830Z,6.73
2018-07-09T01:08:51.905Z,7.17
2018-07-09T01:12:10.258Z,6.27
2018-07-09T01:15:16.888Z,6.63
2018-07-09T01:18:31.429Z,7.60
2018-07-09T01:21:39.705Z,7.00
2018-07-09T01:24:44.598Z,7.03
2018-07-09T01:27:49.527Z,7.50
2018-07-09T01:30:55.946Z,7.33
2018-07-09T01:34:00.335Z,6.50
2018-07-09T01:37:06.635Z,8.00
2018-07-09T01:40:16.780Z,8.00
2018-07-09T01:43:28.783Z,8.70
2018-07-09T01:46:33.359Z,7.80
2018-07-09T01:49:38.048Z,7.77
2018-07-09T01:52:43.011Z,7.87
2018-07-09T01:55:49.734Z,8.20
2018-07-09T01:58:54.304Z,9.47
2018-07-09T02:02:01.065Z,8.40
2018-07-09T02:05:05.524Z,8.27
2018-07-09T02:08:10.785Z,8.00
2018-07-09T02:11:15.841Z,8.33
2018-07-09T02:14:20.371Z,7.77
2018-07-09T02:17:26.138Z,8.43
2018-07-09T02:20:31.138Z,7.70
2018-07-09T02:23:35.833Z,8.33
2018-07-09T02:26:41.340Z,8.00
2018-07-09T02:29:45.894Z,7.90
2018-07-09T02:32:50.518Z,8.23
2018-07-09T02:35:56.116Z,7.67
2018-07-09T02:39:01.775Z,8.40
2018-07-09T02:42:06.729Z,7.80
2018-07-09T02:45:12.668Z,7.40
2018-07-09T02:48:18.377Z,7.97
2018-07-09T02:51:23.474Z,7.13
2018-07-09T02:54:28.765Z,6.17
2018-07-09T02:57:34.110Z,7.10
2018-07-09T03:00:38.882Z,6.23
2018-07-09T03:03:44.378Z,6.50
2018-07-09T03:06:48.939Z,6.23
2018-07-09T03:09:53.482Z,6.50
2018-07-09T03:12:59.320Z,7.00
2018-07-09T03:16:04.811Z,6.87
2018-07-09T03:19:12.689Z,6.03
2018-07-09T03:22:17.519Z,6.53
2018-07-09T03:25:22.831Z,6.17
2018-07-09T03:28:27.553Z,6.43
2018-07-09T03:31:32.219Z,6.20
2018-07-09T03:34:38.697Z,6.17
2018-07-09T03:37:43.072Z,6.30
2018-07-09T03:40:47.357Z,5.60
2018-07-09T03:43:52.054Z,5.33
2018-07-09T03:46:59.396Z,6.43
2018-07-09T03:50:10.948Z,5.60
2018-07-09T03:53:15.306Z,5.53
2018-07-09T03:56:20.362Z,5.10
2018-07-09T03:59:26.476Z,4.93
2018-07-09T04:02:31.631Z,4.53
2018-07-09T04:05:36.287Z,4.10
2018-07-09T04:08:40.437Z,4.03
2018-07-09T04:11:44.841Z,3.83
2018-07-09T04:14:49.123Z,4.63
2018-07-09T04:17:53.625Z,4.27
2018-07-09T04:20:58.168Z,3.90
2018-07-09T04:24:02.585Z,3.70
2018-07-09T04:27:08.237Z,4.70
2018-07-09T04:30:12.675Z,3.77
2018-07-09T04:33:17.257Z,3.73
2018-07-09T04:36:22.061Z,3.57
2018-07-09T04:39:26.516Z,3.03
2018-07-09T04:42:31.296Z,3.13
2018-07-09T04:45:36.254Z,3.17
2018-07-09T04:48:40.590Z,2.50
2018-07-09T04:51:45.096Z,3.40
2018-07-09T04:54:49.404Z,3.20
2018-07-09T04:57:53.823Z,3.43
2018-07-09T05:00:58.392Z,3.17
2018-07-09T05:04:02.853Z,3.60
2018-07-09T05:07:07.206Z,3.03
2018-07-09T05:10:11.645Z,3.70
2018-07-09T05:13:16.065Z,3.50
2018-07-09T05:16:20.703Z,4.03
2018-07-09T05:19:25.110Z,3.30
2018-07-09T05:22:29.625Z,3.53
2018-07-09T05:25:34.505Z,3.30
2018-07-09T05:28:39.141Z,3.60
2018-07-09T05:31:43.616Z,3.70
2018-07-09T05:34:48.211Z,3.80
2018-07-09T05:37:53.114Z,3.03
2018-07-09T05:40:58.051Z,3.00
2018-07-09T05:44:02.822Z,3.37
2018-07-09T05:47:07.292Z,3.53
2018-07-09T05:50:11.674Z,2.67
2018-07-09T05:53:16.520Z,3.13
2018-07-09T05:56:23.379Z,3.50
2018-07-09T05:59:29.925Z,3.30
2018-07-09T06:02:34.685Z,2.73
2018-07-09T06:05:39.038Z,3.00
2018-07-09T06:08:43.375Z,2.37
2018-07-09T06:11:48.030Z,2.63
2018-07-09T06:14:53.724Z,2.43
2018-07-09T06:17:58.159Z,2.80
2018-07-09T06:21:02.560Z,2.40
2018-07-09T06:24:07.200Z,2.87
2018-07-09T06:27:11.931Z,2.33
2018-07-09T06:30:16.610Z,1.83
2018-07-09T06:33:20.951Z,2.07
2018-07-09T06:36:25.386Z,2.67
2018-07-09T06:39:29.894Z,2.00
2018-07-09T06:42:34.312Z,2.70
2018-07-09T06:45:38.811Z,2.10
2018-07-09T06:48:43.101Z,2.60
2018-07-09T06:51:47.424Z,2.03
2018-07-09T06:54:52.837Z,1.73
2018-07-09T06:57:57.202Z,2.30
2018-07-09T07:01:01.649Z,2.40
2018-07-09T07:04:06.336Z,2.27
2018-07-09T07:07:10.815Z,2.20
2018-07-09T07:10:15.112Z,1.93
2018-07-09T07:13:19.392Z,2.03
2018-07-09T07:16:23.827Z,2.13
2018-07-09T07:19:28.179Z,1.90
2018-07-09T07:22:32.541Z,2.60
2018-07-09T07:25:37.240Z,1.80
2018-07-09T07:28:41.717Z,1.90
2018-07-09T07:31:46.171Z,2.20
2018-07-09T07:34:50.841Z,1.90
2018-07-09T07:37:55.176Z,1.90
2018-07-09T07:40:59.761Z,1.73
2018-07-09T07:44:04.224Z,1.90
2018-07-09T07:47:09.178Z,1.80
2018-07-09T07:50:13.919Z,1.77
2018-07-09T07:53:18.283Z,1.63
2018-07-09T07:56:22.601Z,2.03
2018-07-09T07:59:27.152Z,1.67
2018-07-09T08:02:31.467Z,1.80
2018-07-09T08:05:35.812Z,2.37
2018-07-09T08:08:40.278Z,1.97
2018-07-09T08:11:48.552Z,2.33
2018-07-09T08:14:49.679Z,1.70
2018-07-09T08:17:54.033Z,2.10
2018-07-09T08:20:59.200Z,2.00
2018-07-09T08:24:03.375Z,1.90
2018-07-09T08:27:08.054Z,2.07
2018-07-09T08:30:12.735Z,1.87
2018-07-09T08:33:17.079Z,1.83
2018-07-09T08:36:21.438Z,1.93
2018-07-09T08:39:25.554Z,1.53
2018-07-09T08:42:30.076Z,2.03
2018-07-09T08:45:35.356Z,2.40
2018-07-09T08:48:39.857Z,1.80
2018-07-09T08:51:45.500Z,2.00
2018-07-09T08:54:49.820Z,1.57
2018-07-09T08:57:55.399Z,1.50
2018-07-09T09:01:00.369Z,2.10
2018-07-09T09:04:05.099Z,1.80
2018-07-09T09:07:09.666Z,1.83
2018-07-09T09:10:14.123Z,1.70
2018-07-09T09:13:20.341Z,1.43
2018-07-09T09:16:24.669Z,1.63
2018-07-09T09:19:29.040Z,2.27
2018-07-09T09:22:33.526Z,1.97
2018-07-09T09:25:38.221Z,1.63
2018-07-09T09:28:42.805Z,2.03
2018-07-09T09:31:47.465Z,1.70
2018-07-09T09:34:51.837Z,2.13
2018-07-09T09:37:56.503Z,2.03
2018-07-09T09:41:00.865Z,29.80
2018-07-09T09:44:05.412Z,3.83
2018-07-09T09:47:09.818Z,3.80
2018-07-09T09:50:14.128Z,2.83
2018-07-09T09:53:18.452Z,1.70
2018-07-09T09:56:24.454Z,1.90
2018-07-09T09:59:28.854Z,1.73
2018-07-09T10:02:33.910Z,1.20
2018-07-09T10:05:38.633Z,1.60
2018-07-09T10:08:43.275Z,1.37
2018-07-09T10:11:47.940Z,1.80
2018-07-09T10:14:52.418Z,1.80
2018-07-09T10:17:57.175Z,1.70
2018-07-09T10:21:01.528Z,2.00
2018-07-09T10:24:06.082Z,1.80
2018-07-09T10:27:11.579Z,2.23
2018-07-09T10:30:16.645Z,2.20
2018-07-09T10:33:21.073Z,2.30
2018-07-09T10:36:26.209Z,1.53
2018-07-09T10:39:31.235Z,1.67
2018-07-09T10:42:36.363Z,2.50
2018-07-09T10:45:42.849Z,1.73
2018-07-09T10:48:47.343Z,2.17
2018-07-09T10:51:52.366Z,1.70
2018-07-09T10:54:59.319Z,1.60
2018-07-09T10:58:04.186Z,1.83
2018-07-09T11:01:13.203Z,1.73
2018-07-09T11:04:18.089Z,1.60
2018-07-09T11:07:22.719Z,1.80
2018-07-09T11:10:27.486Z,1.50
2018-07-09T11:13:32.034Z,2.13
2018-07-09T11:16:36.990Z,1.77
2018-07-09T11:19:41.456Z,1.97
2018-07-09T11:22:47.437Z,1.47
2018-07-09T11:25:51.927Z,1.50
2018-07-09T11:28:56.861Z,2.27
2018-07-09T11:32:01.314Z,1.80
2018-07-09T11:35:06.057Z,1.40
2018-07-09T11:38:10.385Z,1.97
2018-07-09T11:41:15.011Z,2.33
2018-07-09T11:44:20.443Z,1.80
2018-07-09T11:47:25.102Z,1.97
2018-07-09T11:50:29.910Z,1.90
2018-07-09T11:53:34.290Z,2.13
2018-07-09T11:56:38.756Z,1.80
2018-07-09T11:59:43.721Z,1.80
2018-07-09T12:02:48.213Z,2.37
2018-07-09T12:05:52.731Z,1.43
2018-07-09T12:08:57.769Z,2.00
2018-07-09T12:12:03.052Z,2.53
2018-07-09T12:15:07.402Z,1.90
2018-07-09T12:18:11.779Z,1.90
2018-07-09T12:21:16.340Z,1.57
2018-07-09T12:24:22.555Z,1.83
2018-07-09T12:27:27.120Z,2.00
2018-07-09T12:30:31.465Z,2.10
2018-07-09T12:33:35.911Z,2.37
2018-07-09T12:36:42.333Z,2.77
2018-07-09T12:39:47.338Z,2.47
2018-07-09T12:42:52.989Z,2.23
2018-07-09T12:45:58.201Z,3.00
2018-07-09T12:49:03.333Z,2.17
2018-07-09T12:52:07.881Z,1.93
2018-07-09T12:55:13.210Z,1.93
2018-07-09T12:58:18.090Z,2.20
2018-07-09T13:01:23.173Z,1.97
2018-07-09T13:04:27.859Z,2.70
2018-07-09T13:07:33.186Z,2.33
2018-07-09T13:10:38.699Z,2.63
2018-07-09T13:13:43.586Z,1.70
2018-07-09T13:16:49.056Z,2.20
2018-07-09T13:19:53.413Z,2.07
2018-07-09T13:22:58.311Z,2.30
2018-07-09T13:26:03.349Z,2.27
2018-07-09T13:29:08.294Z,2.10
2018-07-09T13:32:13.034Z,2.43
2018-07-09T13:35:17.602Z,2.20
2018-07-09T13:38:22.833Z,1.90
2018-07-09T13:41:29.868Z,2.27
2018-07-09T13:44:35.008Z,2.07
2018-07-09T13:47:39.243Z,2.20
2018-07-09T13:50:44.170Z,2.57
2018-07-09T13:53:48.955Z,1.60
2018-07-09T13:56:54.240Z,2.47
2018-07-09T13:59:58.904Z,2.73
2018-07-09T14:03:03.404Z,2.60
2018-07-09T14:06:08.239Z,2.27
2018-07-09T14:09:12.553Z,2.57
2018-07-09T14:12:17.685Z,2.83
2018-07-09T14:15:22.414Z,2.27
2018-07-09T14:18:27.126Z,2.33
2018-07-09T14:21:32.056Z,2.50
2018-07-09T14:24:36.835Z,2.00
2018-07-09T14:27:41.705Z,1.90
2018-07-09T14:30:46.868Z,2.70
2018-07-09T14:33:51.299Z,2.40
2018-07-09T14:36:55.995Z,2.13
2018-07-09T14:40:00.621Z,2.43
2018-07-09T14:43:07.877Z,1.70
2018-07-09T14:46:12.240Z,2.40
2018-07-09T14:49:17.261Z,2.80
2018-07-09T14:52:22.209Z,2.10
2018-07-09T14:55:27.293Z,2.23
2018-07-09T14:58:38.632Z,2.73
2018-07-09T15:01:43.203Z,2.40
2018-07-09T15:04:48.141Z,2.00
2018-07-09T15:07:52.725Z,2.27
2018-07-09T15:10:57.648Z,1.93
2018-07-09T15:14:02.639Z,1.93
2018-07-09T15:17:07.808Z,1.73
2018-07-09T15:20:13.457Z,1.93
2018-07-09T15:23:18.397Z,1.97
2018-07-09T15:26:22.854Z,2.27
2018-07-09T15:29:27.325Z,2.27
2018-07-09T15:32:32.545Z,2.37
2018-07-09T15:35:36.977Z,2.53
2018-07-09T15:38:41.426Z,2.60
2018-07-09T15:41:47.658Z,2.37
2018-07-09T15:44:52.287Z,2.33
2018-07-09T15:47:57.228Z,2.00
2018-07-09T15:51:01.768Z,2.27
2018-07-09T15:54:06.108Z,2.87
2018-07-09T15:57:10.544Z,1.87
2018-07-09T16:00:15.584Z,2.10
2018-07-09T16:03:20.328Z,2.27
2018-07-09T16:06:25.122Z,2.43
2018-07-09T16:09:30.118Z,2.20
2018-07-09T16:12:34.765Z,2.57
2018-07-09T16:15:39.773Z,2.13
2018-07-09T16:18:45.151Z,2.00
2018-07-09T16:21:51.072Z,1.80
2018-07-09T16:24:56.013Z,1.90
2018-07-09T16:28:00.933Z,1.90
2018-07-09T16:31:06.017Z,2.10
2018-07-09T16:34:10.387Z,2.37
2018-07-09T16:37:15.125Z,2.10
2018-07-09T16:40:19.426Z,1.80
2018-07-09T16:43:25.610Z,1.90
2018-07-09T16:46:30.509Z,1.93
2018-07-09T16:49:35.755Z,2.10
2018-07-09T16:52:42.142Z,2.00
2018-07-09T16:55:47.381Z,2.13
2018-07-09T16:58:51.929Z,2.17
2018-07-09T17:01:56.216Z,2.00
2018-07-09T17:05:00.934Z,2.07
2018-07-09T17:08:06.373Z,2.97
2018-07-09T17:11:11.052Z,2.07
2018-07-09T17:14:15.930Z,2.30
2018-07-09T17:17:20.468Z,2.70
2018-07-09T17:20:25.001Z,2.43
2018-07-09T17:23:29.642Z,2.40
2018-07-09T17:26:34.528Z,2.10
2018-07-09T17:29:42.929Z,2.77
2018-07-09T17:32:47.902Z,2.70
2018-07-09T17:35:52.433Z,2.43
2018-07-09T17:38:56.870Z,2.00
2018-07-09T17:42:01.337Z,2.27
2018-07-09T17:45:06.587Z,2.00
2018-07-09T17:48:11.034Z,2.10
2018-07-09T17:51:16.056Z,2.90
2018-07-09T17:54:20.726Z,2.17
2018-07-09T17:57:25.050Z,2.30
2018-07-09T18:00:29.796Z,2.10
2018-07-09T18:03:34.111Z,2.10
2018-07-09T18:06:38.991Z,2.63
2018-07-09T18:09:44.504Z,2.40
2018-07-09T18:12:49.166Z,2.87
2018-07-09T18:15:54.262Z,2.17
2018-07-09T18:18:58.621Z,2.30
2018-07-09T18:22:03.428Z,2.20
2018-07-09T18:25:08.982Z,2.27
2018-07-09T18:28:13.362Z,2.20
2018-07-09T18:31:17.699Z,2.27
2018-07-09T18:34:22.104Z,2.43
2018-07-09T18:37:26.501Z,2.00
2018-07-09T18:40:31.127Z,2.23
2018-07-09T18:43:35.490Z,2.83
2018-07-09T18:46:39.921Z,2.37
2018-07-09T18:49:44.704Z,2.00
2018-07-09T18:52:49.428Z,2.07
2018-07-09T18:55:53.595Z,2.60
2018-07-09T18:58:58.340Z,2.70
2018-07-09T19:02:03.239Z,2.40
2018-07-09T19:05:07.723Z,2.73
2018-07-09T19:08:12.370Z,2.60
2018-07-09T19:11:16.691Z,2.67
2018-07-09T19:14:30.014Z,2.10
2018-07-09T19:19:16.701Z,2.40
2018-07-09T19:22:28.256Z,2.30
2018-07-09T19:25:31.158Z,2.80
2018-07-09T19:28:34.180Z,2.40
2018-07-09T19:31:37.071Z,2.17
2018-07-09T19:34:39.918Z,2.57
2018-07-09T19:37:42.958Z,3.70
2018-07-09T19:40:45.477Z,2.70
2018-07-09T19:43:48.298Z,3.03
2018-07-09T19:46:51.410Z,3.40
2018-07-09T19:49:54.278Z,2.37
2018-07-09T19:52:57.053Z,2.47
2018-07-09T19:55:59.966Z,2.27
2018-07-09T19:59:03.923Z,2.90
2018-07-09T20:02:06.841Z,2.57
2018-07-09T20:05:09.731Z,2.37
2018-07-09T20:08:12.605Z,2.43
2018-07-09T20:11:21.038Z,2.90
2018-07-09T20:14:29.351Z,3.20
2018-07-09T20:17:35.995Z,3.13
2018-07-09T20:20:38.919Z,2.53
2018-07-09T20:23:42.143Z,2.60
2018-07-09T20:26:44.962Z,2.60
2018-07-09T20:29:47.894Z,2.90
2018-07-09T20:32:52.428Z,2.77
2018-07-09T20:35:55.309Z,2.80
2018-07-09T20:38:58.174Z,2.93
2018-07-09T20:42:05.758Z,2.77
2018-07-09T20:45:08.579Z,2.90
2018-07-09T20:48:11.630Z,3.13
2018-07-09T20:51:14.846Z,3.07
2018-07-09T20:54:18.047Z,3.40
2018-07-09T20:57:20.926Z,2.63
2018-07-09T21:00:24.150Z,3.23
2018-07-09T21:03:26.981Z,2.83
2018-07-09T21:06:30.733Z,3.10
2018-07-09T21:09:35.221Z,3.20
2018-07-09T21:12:43.567Z,2.73
2018-07-09T21:15:46.862Z,3.20
2018-07-09T21:18:49.900Z,3.70
2018-07-09T21:21:53.823Z,3.30
2018-07-09T21:24:56.642Z,3.63
2018-07-09T21:27:59.758Z,3.27
2018-07-09T21:31:04.015Z,2.93
2018-07-09T21:34:06.779Z,2.87
2018-07-09T21:37:10.896Z,2.93
2018-07-09T21:40:13.714Z,2.70
2018-07-09T21:43:16.674Z,3.17
2018-07-09T21:46:20.904Z,2.63
2018-07-09T21:49:31.496Z,3.33
2018-07-09T21:52:34.726Z,2.77
2018-07-09T21:55:42.426Z,2.50
2018-07-09T21:58:49.568Z,2.83
2018-07-09T22:01:53.525Z,2.87
2018-07-09T22:04:56.677Z,2.60
2018-07-09T22:08:00.181Z,3.07
2018-07-09T22:11:05.156Z,2.53
2018-07-09T22:14:08.766Z,2.77
2018-07-09T22:17:12.263Z,2.67
2018-07-09T22:20:15.837Z,3.10
2018-07-09T22:23:25.994Z,3.27
2018-07-09T22:26:29.272Z,2.70
2018-07-09T22:32:58.625Z,2.50
2018-07-09T22:36:26.297Z,3.40
2018-07-09T22:39:34.731Z,2.93
2018-07-09T22:42:40.188Z,2.60
2018-07-09T22:45:47.571Z,3.17
2018-07-09T22:48:54.296Z,3.20
2018-07-09T22:52:00.103Z,2.97
2018-07-09T22:56:12.049Z,3.27
2018-07-09T22:59:16.500Z,3.33
2018-07-09T23:02:26.580Z,3.37
2018-07-09T23:05:30.910Z,3.80
2018-07-09T23:08:35.267Z,3.47
2018-07-09T23:13:32.908Z,3.47
2018-07-09T23:16:54.278Z,3.87
2018-07-09T23:20:41.019Z,3.37
2018-07-09T23:23:44.625Z,3.90
2018-07-09T23:26:48.031Z,3.67
2018-07-09T23:29:51.861Z,3.20
2018-07-09T23:32:55.368Z,4.27
2018-07-09T23:35:59.418Z,3.80
2018-07-09T23:39:12.456Z,3.63
2018-07-09T23:42:15.468Z,3.23
2018-07-09T23:45:20.557Z,4.20
2018-07-09T23:48:25.114Z,3.37
2018-07-09T23:51:28.245Z,3.20
2018-07-09T23:54:32.005Z,3.90
